sensor_id;sensor_type;location;lat;lon;timestamp;P1;durP1;ratioP1;P2;durP2;ratioP2
12356;SDS011;6243;51.244;6.774;2023-04-03T00:00:25;4.80;;;4.33;;
12356;SDS011;6243;51.244;6.774;2023-04-03T00:02:51;5.90;;;5.13;;
12356;SDS011;6243;51.244;6.774;2023-04-03T00:05:16;5.70;;;4.03;;
12356;SDS011;6243;51.244;6.774;2023-04-03T00:07:42;5.77;;;4.90;;
12356;SDS011;6243;51.244;6.774;2023-04-03T00:10:08;5.27;;;4.20;;
12356;SDS011;6243;51.244;6.774;2023-04-03T00:12:34;5.33;;;4.00;;
12356;SDS011;6243;51.244;6.774;2023-04-03T00:15:01;6.93;;;4.73;;
12356;SDS011;6243;51.244;6.774;2023-04-03T00:17:26;5.47;;;4.67;;
12356;SDS011;6243;51.244;6.774;2023-04-03T00:19:52;8.53;;;4.27;;
12356;SDS011;6243;51.244;6.774;2023-04-03T00:22:17;5.90;;;4.30;;
12356;SDS011;6243;51.244;6.774;2023-04-03T00:24:43;5.13;;;4.40;;
12356;SDS011;6243;51.244;6.774;2023-04-03T00:27:08;4.77;;;4.37;;
12356;SDS011;6243;51.244;6.774;2023-04-03T00:29:34;5.13;;;4.30;;
12356;SDS011;6243;51.244;6.774;2023-04-03T00:32:01;4.87;;;4.30;;
12356;SDS011;6243;51.244;6.774;2023-04-03T00:34:27;5.63;;;4.57;;
12356;SDS011;6243;51.244;6.774;2023-04-03T00:36:52;5.50;;;4.27;;
12356;SDS011;6243;51.244;6.774;2023-04-03T00:39:18;5.80;;;4.30;;
12356;SDS011;6243;51.244;6.774;2023-04-03T00:41:43;5.30;;;4.40;;
12356;SDS011;6243;51.244;6.774;2023-04-03T00:44:21;6.50;;;4.87;;
12356;SDS011;6243;51.244;6.774;2023-04-03T00:47:09;5.00;;;4.50;;
12356;SDS011;6243;51.244;6.774;2023-04-03T00:49:36;5.10;;;4.60;;
12356;SDS011;6243;51.244;6.774;2023-04-03T00:52:03;4.90;;;4.33;;
12356;SDS011;6243;51.244;6.774;2023-04-03T00:54:32;6.50;;;4.80;;
12356;SDS011;6243;51.244;6.774;2023-04-03T00:57:00;4.67;;;4.10;;
12356;SDS011;6243;51.244;6.774;2023-04-03T00:59:27;5.17;;;4.50;;
12356;SDS011;6243;51.244;6.774;2023-04-03T01:01:57;6.10;;;4.50;;
12356;SDS011;6243;51.244;6.774;2023-04-03T01:04:28;5.97;;;4.43;;
12356;SDS011;6243;51.244;6.774;2023-04-03T01:06:55;7.80;;;4.33;;
12356;SDS011;6243;51.244;6.774;2023-04-03T01:09:23;5.13;;;4.37;;
12356;SDS011;6243;51.244;6.774;2023-04-03T01:11:49;4.97;;;4.10;;
12356;SDS011;6243;51.244;6.774;2023-04-03T01:14:14;6.37;;;4.13;;
12356;SDS011;6243;51.244;6.774;2023-04-03T01:16:40;7.57;;;4.30;;
12356;SDS011;6243;51.244;6.774;2023-04-03T01:19:05;5.33;;;4.37;;
12356;SDS011;6243;51.244;6.774;2023-04-03T01:21:51;4.87;;;4.10;;
12356;SDS011;6243;51.244;6.774;2023-04-03T01:24:35;6.83;;;4.10;;
12356;SDS011;6243;51.244;6.774;2023-04-03T01:27:02;4.60;;;4.13;;
12356;SDS011;6243;51.244;6.774;2023-04-03T01:29:30;4.83;;;4.00;;
12356;SDS011;6243;51.244;6.774;2023-04-03T01:31:58;5.13;;;3.97;;
12356;SDS011;6243;51.244;6.774;2023-04-03T01:34:25;5.53;;;4.40;;
12356;SDS011;6243;51.244;6.774;2023-04-03T01:36:51;4.50;;;4.10;;
12356;SDS011;6243;51.244;6.774;2023-04-03T01:39:17;6.07;;;4.43;;
12356;SDS011;6243;51.244;6.774;2023-04-03T01:41:43;6.57;;;4.20;;
12356;SDS011;6243;51.244;6.774;2023-04-03T01:44:08;4.60;;;4.13;;
12356;SDS011;6243;51.244;6.774;2023-04-03T01:46:34;6.47;;;4.37;;
12356;SDS011;6243;51.244;6.774;2023-04-03T01:49:01;6.43;;;4.83;;
12356;SDS011;6243;51.244;6.774;2023-04-03T01:51:27;6.10;;;4.00;;
12356;SDS011;6243;51.244;6.774;2023-04-03T01:53:52;4.17;;;3.77;;
12356;SDS011;6243;51.244;6.774;2023-04-03T01:56:18;4.67;;;4.13;;
12356;SDS011;6243;51.244;6.774;2023-04-03T01:58:43;6.07;;;3.83;;
12356;SDS011;6243;51.244;6.774;2023-04-03T02:01:09;5.53;;;4.10;;
12356;SDS011;6243;51.244;6.774;2023-04-03T02:03:34;5.40;;;4.87;;
12356;SDS011;6243;51.244;6.774;2023-04-03T02:06:01;5.07;;;4.47;;
12356;SDS011;6243;51.244;6.774;2023-04-03T02:08:27;4.30;;;3.90;;
12356;SDS011;6243;51.244;6.774;2023-04-03T02:10:52;5.60;;;4.33;;
12356;SDS011;6243;51.244;6.774;2023-04-03T02:13:18;5.10;;;4.50;;
12356;SDS011;6243;51.244;6.774;2023-04-03T02:15:43;5.37;;;4.87;;
12356;SDS011;6243;51.244;6.774;2023-04-03T02:18:09;5.17;;;4.43;;
12356;SDS011;6243;51.244;6.774;2023-04-03T02:20:34;5.23;;;4.50;;
12356;SDS011;6243;51.244;6.774;2023-04-03T02:23:01;5.20;;;4.70;;
12356;SDS011;6243;51.244;6.774;2023-04-03T02:25:27;6.40;;;5.13;;
12356;SDS011;6243;51.244;6.774;2023-04-03T02:27:53;7.50;;;5.23;;
12356;SDS011;6243;51.244;6.774;2023-04-03T02:30:18;7.70;;;5.00;;
12356;SDS011;6243;51.244;6.774;2023-04-03T02:32:44;5.50;;;4.97;;
12356;SDS011;6243;51.244;6.774;2023-04-03T02:35:10;6.93;;;4.63;;
12356;SDS011;6243;51.244;6.774;2023-04-03T02:37:36;5.87;;;4.63;;
12356;SDS011;6243;51.244;6.774;2023-04-03T02:40:04;6.97;;;5.00;;
12356;SDS011;6243;51.244;6.774;2023-04-03T02:42:30;5.33;;;4.80;;
12356;SDS011;6243;51.244;6.774;2023-04-03T02:44:56;6.53;;;4.37;;
12356;SDS011;6243;51.244;6.774;2023-04-03T02:47:21;7.60;;;5.10;;
12356;SDS011;6243;51.244;6.774;2023-04-03T02:49:47;7.90;;;5.40;;
12356;SDS011;6243;51.244;6.774;2023-04-03T02:52:12;5.90;;;4.90;;
12356;SDS011;6243;51.244;6.774;2023-04-03T02:54:38;6.93;;;4.80;;
12356;SDS011;6243;51.244;6.774;2023-04-03T02:57:05;8.03;;;4.43;;
12356;SDS011;6243;51.244;6.774;2023-04-03T02:59:31;7.60;;;5.10;;
12356;SDS011;6243;51.244;6.774;2023-04-03T03:01:56;7.77;;;5.30;;
12356;SDS011;6243;51.244;6.774;2023-04-03T03:04:22;6.40;;;5.20;;
12356;SDS011;6243;51.244;6.774;2023-04-03T03:06:47;7.50;;;4.80;;
12356;SDS011;6243;51.244;6.774;2023-04-03T03:09:13;8.50;;;5.20;;
12356;SDS011;6243;51.244;6.774;2023-04-03T03:11:38;7.83;;;5.37;;
12356;SDS011;6243;51.244;6.774;2023-04-03T03:14:05;6.13;;;5.50;;
12356;SDS011;6243;51.244;6.774;2023-04-03T03:16:31;6.37;;;4.70;;
12356;SDS011;6243;51.244;6.774;2023-04-03T03:18:57;6.97;;;4.97;;
12356;SDS011;6243;51.244;6.774;2023-04-03T03:21:22;8.50;;;4.77;;
12356;SDS011;6243;51.244;6.774;2023-04-03T03:23:48;5.57;;;4.80;;
12356;SDS011;6243;51.244;6.774;2023-04-03T03:26:13;5.20;;;4.63;;
12356;SDS011;6243;51.244;6.774;2023-04-03T03:28:39;6.20;;;4.77;;
12356;SDS011;6243;51.244;6.774;2023-04-03T03:31:06;4.97;;;4.27;;
12356;SDS011;6243;51.244;6.774;2023-04-03T03:33:32;4.80;;;4.40;;
12356;SDS011;6243;51.244;6.774;2023-04-03T03:35:58;7.63;;;4.90;;
12356;SDS011;6243;51.244;6.774;2023-04-03T03:38:24;5.53;;;4.90;;
12356;SDS011;6243;51.244;6.774;2023-04-03T03:40:50;8.63;;;4.67;;
12356;SDS011;6243;51.244;6.774;2023-04-03T03:43:16;6.57;;;4.13;;
12356;SDS011;6243;51.244;6.774;2023-04-03T03:45:42;6.40;;;4.50;;
12356;SDS011;6243;51.244;6.774;2023-04-03T03:48:09;7.40;;;4.50;;
12356;SDS011;6243;51.244;6.774;2023-04-03T03:50:35;5.57;;;4.43;;
12356;SDS011;6243;51.244;6.774;2023-04-03T03:53:00;4.97;;;3.93;;
12356;SDS011;6243;51.244;6.774;2023-04-03T03:55:26;7.50;;;4.57;;
12356;SDS011;6243;51.244;6.774;2023-04-03T03:57:51;4.93;;;3.80;;
12356;SDS011;6243;51.244;6.774;2023-04-03T04:00:17;6.10;;;4.13;;
12356;SDS011;6243;51.244;6.774;2023-04-03T04:02:43;4.60;;;3.97;;
12356;SDS011;6243;51.244;6.774;2023-04-03T04:05:10;5.17;;;3.97;;
12356;SDS011;6243;51.244;6.774;2023-04-03T04:07:35;5.43;;;3.90;;
12356;SDS011;6243;51.244;6.774;2023-04-03T04:10:01;4.30;;;3.47;;
12356;SDS011;6243;51.244;6.774;2023-04-03T04:12:27;5.13;;;3.53;;
12356;SDS011;6243;51.244;6.774;2023-04-03T04:14:52;4.80;;;3.77;;
12356;SDS011;6243;51.244;6.774;2023-04-03T04:17:18;4.70;;;3.70;;
12356;SDS011;6243;51.244;6.774;2023-04-03T04:19:44;4.97;;;3.40;;
12356;SDS011;6243;51.244;6.774;2023-04-03T04:22:11;5.93;;;3.63;;
12356;SDS011;6243;51.244;6.774;2023-04-03T04:24:36;5.47;;;3.70;;
12356;SDS011;6243;51.244;6.774;2023-04-03T04:27:02;5.53;;;3.50;;
12356;SDS011;6243;51.244;6.774;2023-04-03T04:29:27;4.83;;;3.77;;
12356;SDS011;6243;51.244;6.774;2023-04-03T04:31:53;3.40;;;3.10;;
12356;SDS011;6243;51.244;6.774;2023-04-03T04:34:18;6.97;;;3.33;;
12356;SDS011;6243;51.244;6.774;2023-04-03T04:36:44;4.70;;;3.30;;
12356;SDS011;6243;51.244;6.774;2023-04-03T04:39:11;3.70;;;3.17;;
12356;SDS011;6243;51.244;6.774;2023-04-03T04:41:36;4.97;;;3.47;;
12356;SDS011;6243;51.244;6.774;2023-04-03T04:44:02;5.03;;;3.10;;
12356;SDS011;6243;51.244;6.774;2023-04-03T04:46:27;5.17;;;3.03;;
12356;SDS011;6243;51.244;6.774;2023-04-03T04:48:53;3.37;;;2.83;;
12356;SDS011;6243;51.244;6.774;2023-04-03T04:51:18;4.97;;;3.00;;
12356;SDS011;6243;51.244;6.774;2023-04-03T04:53:44;5.60;;;3.30;;
12356;SDS011;6243;51.244;6.774;2023-04-03T04:56:11;5.37;;;3.07;;
12356;SDS011;6243;51.244;6.774;2023-04-03T04:58:36;5.80;;;3.20;;
12356;SDS011;6243;51.244;6.774;2023-04-03T05:01:02;3.60;;;2.80;;
12356;SDS011;6243;51.244;6.774;2023-04-03T05:03:29;2.60;;;2.40;;
12356;SDS011;6243;51.244;6.774;2023-04-03T05:05:55;5.47;;;3.00;;
12356;SDS011;6243;51.244;6.774;2023-04-03T05:08:21;2.83;;;2.53;;
12356;SDS011;6243;51.244;6.774;2023-04-03T05:10:46;5.07;;;2.87;;
12356;SDS011;6243;51.244;6.774;2023-04-03T05:13:14;4.83;;;2.70;;
12356;SDS011;6243;51.244;6.774;2023-04-03T05:15:40;6.20;;;2.60;;
12356;SDS011;6243;51.244;6.774;2023-04-03T05:18:05;5.20;;;3.00;;
12356;SDS011;6243;51.244;6.774;2023-04-03T05:20:31;5.27;;;2.73;;
12356;SDS011;6243;51.244;6.774;2023-04-03T05:22:57;3.70;;;2.40;;
12356;SDS011;6243;51.244;6.774;2023-04-03T05:25:23;4.00;;;2.67;;
12356;SDS011;6243;51.244;6.774;2023-04-03T05:27:49;3.90;;;2.33;;
12356;SDS011;6243;51.244;6.774;2023-04-03T05:30:16;3.30;;;2.30;;
12356;SDS011;6243;51.244;6.774;2023-04-03T05:32:42;3.27;;;2.70;;
12356;SDS011;6243;51.244;6.774;2023-04-03T05:35:08;2.87;;;2.47;;
12356;SDS011;6243;51.244;6.774;2023-04-03T05:37:34;5.30;;;2.57;;
12356;SDS011;6243;51.244;6.774;2023-04-03T05:39:59;3.80;;;2.57;;
12356;SDS011;6243;51.244;6.774;2023-04-03T05:42:25;6.20;;;2.63;;
12356;SDS011;6243;51.244;6.774;2023-04-03T05:44:51;3.50;;;2.63;;
12356;SDS011;6243;51.244;6.774;2023-04-03T05:47:18;6.80;;;3.00;;
12356;SDS011;6243;51.244;6.774;2023-04-03T05:49:44;6.73;;;3.50;;
12356;SDS011;6243;51.244;6.774;2023-04-03T05:52:10;6.33;;;2.60;;
12356;SDS011;6243;51.244;6.774;2023-04-03T05:54:45;4.83;;;2.70;;
12356;SDS011;6243;51.244;6.774;2023-04-03T05:57:10;2.93;;;2.50;;
12356;SDS011;6243;51.244;6.774;2023-04-03T05:59:36;3.40;;;2.23;;
12356;SDS011;6243;51.244;6.774;2023-04-03T06:02:01;4.83;;;3.20;;
12356;SDS011;6243;51.244;6.774;2023-04-03T06:04:28;5.40;;;2.70;;
12356;SDS011;6243;51.244;6.774;2023-04-03T06:06:54;4.77;;;2.37;;
12356;SDS011;6243;51.244;6.774;2023-04-03T06:09:21;5.07;;;2.53;;
12356;SDS011;6243;51.244;6.774;2023-04-03T06:11:48;4.57;;;2.60;;
12356;SDS011;6243;51.244;6.774;2023-04-03T06:14:13;2.77;;;2.03;;
12356;SDS011;6243;51.244;6.774;2023-04-03T06:16:39;8.10;;;2.83;;
12356;SDS011;6243;51.244;6.774;2023-04-03T06:19:04;4.17;;;2.60;;
12356;SDS011;6243;51.244;6.774;2023-04-03T06:21:31;4.20;;;2.37;;
12356;SDS011;6243;51.244;6.774;2023-04-03T06:23:57;5.20;;;2.30;;
12356;SDS011;6243;51.244;6.774;2023-04-03T06:26:22;4.23;;;2.50;;
12356;SDS011;6243;51.244;6.774;2023-04-03T06:28:48;5.93;;;3.33;;
12356;SDS011;6243;51.244;6.774;2023-04-03T06:31:13;4.33;;;2.40;;
12356;SDS011;6243;51.244;6.774;2023-04-03T06:33:39;3.80;;;2.37;;
12356;SDS011;6243;51.244;6.774;2023-04-03T06:36:05;6.53;;;2.57;;
12356;SDS011;6243;51.244;6.774;2023-04-03T06:38:32;4.97;;;2.30;;
12356;SDS011;6243;51.244;6.774;2023-04-03T06:40:58;3.63;;;2.50;;
12356;SDS011;6243;51.244;6.774;2023-04-03T06:43:24;3.80;;;2.57;;
12356;SDS011;6243;51.244;6.774;2023-04-03T06:45:50;3.57;;;2.10;;
12356;SDS011;6243;51.244;6.774;2023-04-03T06:48:15;4.27;;;2.20;;
12356;SDS011;6243;51.244;6.774;2023-04-03T06:50:41;4.53;;;2.47;;
12356;SDS011;6243;51.244;6.774;2023-04-03T06:53:07;3.50;;;1.77;;
12356;SDS011;6243;51.244;6.774;2023-04-03T06:55:34;5.37;;;2.50;;
12356;SDS011;6243;51.244;6.774;2023-04-03T06:58:00;5.00;;;2.60;;
12356;SDS011;6243;51.244;6.774;2023-04-03T07:00:25;5.73;;;2.53;;
12356;SDS011;6243;51.244;6.774;2023-04-03T07:02:51;4.63;;;2.37;;
12356;SDS011;6243;51.244;6.774;2023-04-03T07:05:16;5.20;;;2.57;;
12356;SDS011;6243;51.244;6.774;2023-04-03T07:07:42;4.47;;;2.47;;
12356;SDS011;6243;51.244;6.774;2023-04-03T07:10:08;5.73;;;2.30;;
12356;SDS011;6243;51.244;6.774;2023-04-03T07:12:35;4.73;;;2.23;;
12356;SDS011;6243;51.244;6.774;2023-04-03T07:15:00;5.27;;;2.30;;
12356;SDS011;6243;51.244;6.774;2023-04-03T07:17:26;2.93;;;2.00;;
12356;SDS011;6243;51.244;6.774;2023-04-03T07:19:51;3.53;;;2.10;;
12356;SDS011;6243;51.244;6.774;2023-04-03T07:22:17;4.17;;;2.27;;
12356;SDS011;6243;51.244;6.774;2023-04-03T07:24:43;3.97;;;2.07;;
12356;SDS011;6243;51.244;6.774;2023-04-03T07:27:09;4.17;;;2.10;;
12356;SDS011;6243;51.244;6.774;2023-04-03T07:29:36;4.13;;;2.20;;
12356;SDS011;6243;51.244;6.774;2023-04-03T07:32:01;4.90;;;2.27;;
12356;SDS011;6243;51.244;6.774;2023-04-03T07:34:27;4.87;;;2.50;;
12356;SDS011;6243;51.244;6.774;2023-04-03T07:36:53;5.00;;;2.73;;
12356;SDS011;6243;51.244;6.774;2023-04-03T07:39:19;4.70;;;2.20;;
12356;SDS011;6243;51.244;6.774;2023-04-03T07:41:44;4.63;;;2.30;;
12356;SDS011;6243;51.244;6.774;2023-04-03T07:44:10;3.00;;;2.30;;
12356;SDS011;6243;51.244;6.774;2023-04-03T07:46:37;3.90;;;2.30;;
12356;SDS011;6243;51.244;6.774;2023-04-03T07:49:03;3.53;;;2.17;;
12356;SDS011;6243;51.244;6.774;2023-04-03T07:51:28;4.50;;;2.10;;
12356;SDS011;6243;51.244;6.774;2023-04-03T07:53:54;5.10;;;2.27;;
12356;SDS011;6243;51.244;6.774;2023-04-03T07:56:19;6.53;;;2.10;;
12356;SDS011;6243;51.244;6.774;2023-04-03T07:58:45;5.23;;;2.10;;
12356;SDS011;6243;51.244;6.774;2023-04-03T08:01:10;4.90;;;2.00;;
12356;SDS011;6243;51.244;6.774;2023-04-03T08:03:37;3.40;;;2.20;;
12356;SDS011;6243;51.244;6.774;2023-04-03T08:06:04;4.37;;;2.23;;
12356;SDS011;6243;51.244;6.774;2023-04-03T08:08:31;4.50;;;1.97;;
12356;SDS011;6243;51.244;6.774;2023-04-03T08:10:57;3.80;;;1.93;;
12356;SDS011;6243;51.244;6.774;2023-04-03T08:13:24;2.60;;;1.77;;
12356;SDS011;6243;51.244;6.774;2023-04-03T08:15:50;2.70;;;1.90;;
12356;SDS011;6243;51.244;6.774;2023-04-03T08:18:16;3.93;;;1.70;;
12356;SDS011;6243;51.244;6.774;2023-04-03T08:20:43;4.17;;;1.97;;
12356;SDS011;6243;51.244;6.774;2023-04-03T08:23:09;4.00;;;1.70;;
12356;SDS011;6243;51.244;6.774;2023-04-03T08:25:37;4.07;;;1.97;;
12356;SDS011;6243;51.244;6.774;2023-04-03T08:28:03;3.00;;;1.83;;
12356;SDS011;6243;51.244;6.774;2023-04-03T08:30:29;2.73;;;1.77;;
12356;SDS011;6243;51.244;6.774;2023-04-03T08:32:54;3.13;;;1.30;;
12356;SDS011;6243;51.244;6.774;2023-04-03T08:35:20;2.57;;;1.53;;
12356;SDS011;6243;51.244;6.774;2023-04-03T08:37:47;5.20;;;1.80;;
12356;SDS011;6243;51.244;6.774;2023-04-03T08:40:13;3.17;;;1.20;;
12356;SDS011;6243;51.244;6.774;2023-04-03T08:42:42;3.33;;;1.50;;
12356;SDS011;6243;51.244;6.774;2023-04-03T08:45:15;2.30;;;1.47;;
12356;SDS011;6243;51.244;6.774;2023-04-03T08:47:46;2.93;;;1.30;;
12356;SDS011;6243;51.244;6.774;2023-04-03T08:50:17;4.67;;;1.70;;
12356;SDS011;6243;51.244;6.774;2023-04-03T08:52:47;4.30;;;1.30;;
12356;SDS011;6243;51.244;6.774;2023-04-03T08:55:19;2.23;;;1.53;;
12356;SDS011;6243;51.244;6.774;2023-04-03T08:57:48;4.30;;;1.47;;
12356;SDS011;6243;51.244;6.774;2023-04-03T09:00:20;2.63;;;1.60;;
12356;SDS011;6243;51.244;6.774;2023-04-03T09:02:48;2.13;;;1.10;;
12356;SDS011;6243;51.244;6.774;2023-04-03T09:05:16;2.43;;;1.50;;
12356;SDS011;6243;51.244;6.774;2023-04-03T09:07:44;3.00;;;1.47;;
12356;SDS011;6243;51.244;6.774;2023-04-03T09:10:15;2.13;;;1.30;;
12356;SDS011;6243;51.244;6.774;2023-04-03T09:12:49;2.73;;;1.37;;
12356;SDS011;6243;51.244;6.774;2023-04-03T09:15:24;3.50;;;1.37;;
12356;SDS011;6243;51.244;6.774;2023-04-03T09:17:57;1.70;;;1.20;;
12356;SDS011;6243;51.244;6.774;2023-04-03T09:20:30;2.27;;;1.87;;
12356;SDS011;6243;51.244;6.774;2023-04-03T09:23:08;2.03;;;1.30;;
12356;SDS011;6243;51.244;6.774;2023-04-03T09:25:46;2.33;;;1.33;;
12356;SDS011;6243;51.244;6.774;2023-04-03T09:28:13;2.93;;;1.40;;
12356;SDS011;6243;51.244;6.774;2023-04-03T09:30:39;5.03;;;1.33;;
12356;SDS011;6243;51.244;6.774;2023-04-03T09:33:04;3.27;;;1.50;;
12356;SDS011;6243;51.244;6.774;2023-04-03T09:35:30;3.07;;;1.50;;
12356;SDS011;6243;51.244;6.774;2023-04-03T09:37:58;4.07;;;1.70;;
12356;SDS011;6243;51.244;6.774;2023-04-03T09:40:31;2.67;;;1.10;;
12356;SDS011;6243;51.244;6.774;2023-04-03T09:43:03;4.13;;;1.40;;
12356;SDS011;6243;51.244;6.774;2023-04-03T09:45:45;1.60;;;1.17;;
12356;SDS011;6243;51.244;6.774;2023-04-03T09:48:15;1.50;;;1.20;;
12356;SDS011;6243;51.244;6.774;2023-04-03T09:50:52;2.00;;;1.40;;
12356;SDS011;6243;51.244;6.774;2023-04-03T09:53:26;2.90;;;1.47;;
12356;SDS011;6243;51.244;6.774;2023-04-03T09:55:57;3.33;;;1.00;;
12356;SDS011;6243;51.244;6.774;2023-04-03T09:58:24;2.03;;;1.10;;
12356;SDS011;6243;51.244;6.774;2023-04-03T10:00:55;2.27;;;1.10;;
12356;SDS011;6243;51.244;6.774;2023-04-03T10:03:23;1.40;;;1.00;;
12356;SDS011;6243;51.244;6.774;2023-04-03T10:05:50;1.83;;;0.97;;
12356;SDS011;6243;51.244;6.774;2023-04-03T10:08:23;1.10;;;1.00;;
12356;SDS011;6243;51.244;6.774;2023-04-03T10:13:55;2.90;;;1.30;;
12356;SDS011;6243;51.244;6.774;2023-04-03T10:16:24;1.23;;;1.10;;
12356;SDS011;6243;51.244;6.774;2023-04-03T10:18:54;1.60;;;1.30;;
12356;SDS011;6243;51.244;6.774;2023-04-03T10:21:33;2.33;;;1.20;;
12356;SDS011;6243;51.244;6.774;2023-04-03T10:24:06;3.07;;;1.70;;
12356;SDS011;6243;51.244;6.774;2023-04-03T10:26:39;1.77;;;1.50;;
12356;SDS011;6243;51.244;6.774;2023-04-03T10:29:13;2.93;;;1.43;;
12356;SDS011;6243;51.244;6.774;2023-04-03T10:31:53;2.63;;;1.30;;
12356;SDS011;6243;51.244;6.774;2023-04-03T10:34:28;3.00;;;1.30;;
12356;SDS011;6243;51.244;6.774;2023-04-03T10:36:58;2.27;;;1.43;;
12356;SDS011;6243;51.244;6.774;2023-04-03T10:39:32;2.10;;;1.40;;
12356;SDS011;6243;51.244;6.774;2023-04-03T10:42:07;1.67;;;1.10;;
12356;SDS011;6243;51.244;6.774;2023-04-03T10:44:40;2.40;;;1.10;;
12356;SDS011;6243;51.244;6.774;2023-04-03T10:47:17;2.73;;;1.47;;
12356;SDS011;6243;51.244;6.774;2023-04-03T10:49:48;3.97;;;1.37;;
12356;SDS011;6243;51.244;6.774;2023-04-03T10:52:22;2.73;;;1.50;;
12356;SDS011;6243;51.244;6.774;2023-04-03T10:54:56;2.60;;;1.27;;
12356;SDS011;6243;51.244;6.774;2023-04-03T10:57:33;2.73;;;1.20;;
12356;SDS011;6243;51.244;6.774;2023-04-03T11:00:00;2.00;;;1.30;;
12356;SDS011;6243;51.244;6.774;2023-04-03T11:02:30;2.63;;;1.17;;
12356;SDS011;6243;51.244;6.774;2023-04-03T11:04:59;1.80;;;1.30;;
12356;SDS011;6243;51.244;6.774;2023-04-03T11:07:26;2.87;;;1.30;;
12356;SDS011;6243;51.244;6.774;2023-04-03T11:09:55;1.10;;;1.00;;
12356;SDS011;6243;51.244;6.774;2023-04-03T11:12:26;2.27;;;1.47;;
12356;SDS011;6243;51.244;6.774;2023-04-03T11:15:00;1.97;;;1.43;;
12356;SDS011;6243;51.244;6.774;2023-04-03T11:17:30;2.47;;;1.40;;
12356;SDS011;6243;51.244;6.774;2023-04-03T11:20:02;2.13;;;1.33;;
12356;SDS011;6243;51.244;6.774;2023-04-03T11:22:36;3.13;;;1.40;;
12356;SDS011;6243;51.244;6.774;2023-04-03T11:25:08;2.63;;;1.40;;
12356;SDS011;6243;51.244;6.774;2023-04-03T11:27:41;3.10;;;1.27;;
12356;SDS011;6243;51.244;6.774;2023-04-03T11:30:13;2.10;;;1.47;;
12356;SDS011;6243;51.244;6.774;2023-04-03T11:32:52;1.93;;;1.33;;
12356;SDS011;6243;51.244;6.774;2023-04-03T11:35:27;2.43;;;1.20;;
12356;SDS011;6243;51.244;6.774;2023-04-03T11:37:53;2.90;;;1.00;;
12356;SDS011;6243;51.244;6.774;2023-04-03T11:40:21;2.30;;;1.23;;
12356;SDS011;6243;51.244;6.774;2023-04-03T11:42:51;1.23;;;1.00;;
12356;SDS011;6243;51.244;6.774;2023-04-03T12:09:27;1.87;;;0.90;;
12356;SDS011;6243;51.244;6.774;2023-04-03T12:12:36;1.20;;;0.80;;
12356;SDS011;6243;51.244;6.774;2023-04-03T12:15:18;2.17;;;1.10;;
12356;SDS011;6243;51.244;6.774;2023-04-03T12:17:47;2.20;;;1.10;;
12356;SDS011;6243;51.244;6.774;2023-04-03T12:26:22;1.33;;;1.23;;
12356;SDS011;6243;51.244;6.774;2023-04-03T12:28:50;1.40;;;0.83;;
12356;SDS011;6243;51.244;6.774;2023-04-03T12:31:17;3.10;;;1.13;;
12356;SDS011;6243;51.244;6.774;2023-04-03T12:34:00;2.00;;;1.00;;
12356;SDS011;6243;51.244;6.774;2023-04-03T12:36:42;1.23;;;1.10;;
12356;SDS011;6243;51.244;6.774;2023-04-03T12:39:22;2.20;;;1.13;;
12356;SDS011;6243;51.244;6.774;2023-04-03T12:42:03;3.50;;;0.93;;
12356;SDS011;6243;51.244;6.774;2023-04-03T12:44:44;1.87;;;1.40;;
12356;SDS011;6243;51.244;6.774;2023-04-03T12:47:23;2.27;;;0.93;;
12356;SDS011;6243;51.244;6.774;2023-04-03T12:49:53;3.47;;;1.40;;
12356;SDS011;6243;51.244;6.774;2023-04-03T12:52:21;1.50;;;1.10;;
12356;SDS011;6243;51.244;6.774;2023-04-03T12:54:55;1.03;;;0.90;;
12356;SDS011;6243;51.244;6.774;2023-04-03T12:57:22;1.57;;;1.07;;
12356;SDS011;6243;51.244;6.774;2023-04-03T12:59:50;1.20;;;1.10;;
12356;SDS011;6243;51.244;6.774;2023-04-03T13:02:25;2.03;;;1.30;;
12356;SDS011;6243;51.244;6.774;2023-04-03T13:04:54;2.37;;;1.13;;
12356;SDS011;6243;51.244;6.774;2023-04-03T13:07:22;1.23;;;0.90;;
12356;SDS011;6243;51.244;6.774;2023-04-03T13:09:59;1.57;;;1.20;;
12356;SDS011;6243;51.244;6.774;2023-04-03T13:12:28;2.70;;;1.10;;
12356;SDS011;6243;51.244;6.774;2023-04-03T13:14:55;1.80;;;1.00;;
12356;SDS011;6243;51.244;6.774;2023-04-03T13:17:22;1.00;;;0.90;;
12356;SDS011;6243;51.244;6.774;2023-04-03T13:19:49;2.83;;;0.97;;
12356;SDS011;6243;51.244;6.774;2023-04-03T13:22:21;2.43;;;1.30;;
12356;SDS011;6243;51.244;6.774;2023-04-03T13:24:53;2.43;;;1.23;;
12356;SDS011;6243;51.244;6.774;2023-04-03T13:27:22;2.00;;;0.90;;
12356;SDS011;6243;51.244;6.774;2023-04-03T13:29:49;1.70;;;1.00;;
12356;SDS011;6243;51.244;6.774;2023-04-03T13:32:17;1.63;;;1.13;;
12356;SDS011;6243;51.244;6.774;2023-04-03T13:34:45;1.93;;;1.30;;
12356;SDS011;6243;51.244;6.774;2023-04-03T13:37:20;3.50;;;1.30;;
12356;SDS011;6243;51.244;6.774;2023-04-03T13:39:56;1.97;;;1.20;;
12356;SDS011;6243;51.244;6.774;2023-04-03T13:42:26;3.37;;;1.27;;
12356;SDS011;6243;51.244;6.774;2023-04-03T13:45:08;1.50;;;1.40;;
12356;SDS011;6243;51.244;6.774;2023-04-03T13:47:37;1.43;;;1.30;;
12356;SDS011;6243;51.244;6.774;2023-04-03T13:50:13;1.63;;;1.10;;
12356;SDS011;6243;51.244;6.774;2023-04-03T13:52:43;1.67;;;1.27;;
12356;SDS011;6243;51.244;6.774;2023-04-03T13:55:16;1.83;;;1.40;;
12356;SDS011;6243;51.244;6.774;2023-04-03T13:57:51;3.13;;;1.23;;
12356;SDS011;6243;51.244;6.774;2023-04-03T14:00:21;3.00;;;1.50;;
12356;SDS011;6243;51.244;6.774;2023-04-03T14:02:53;2.27;;;1.17;;
12356;SDS011;6243;51.244;6.774;2023-04-03T14:05:19;2.13;;;1.23;;
12356;SDS011;6243;51.244;6.774;2023-04-03T14:07:46;2.23;;;1.33;;
12356;SDS011;6243;51.244;6.774;2023-04-03T14:10:12;4.07;;;1.20;;
12356;SDS011;6243;51.244;6.774;2023-04-03T14:12:38;2.07;;;1.20;;
12356;SDS011;6243;51.244;6.774;2023-04-03T14:15:06;2.20;;;1.30;;
12356;SDS011;6243;51.244;6.774;2023-04-03T14:17:40;1.43;;;1.20;;
12356;SDS011;6243;51.244;6.774;2023-04-03T14:20:06;3.30;;;1.70;;
12356;SDS011;6243;51.244;6.774;2023-04-03T14:22:39;1.57;;;1.20;;
12356;SDS011;6243;51.244;6.774;2023-04-03T14:25:06;1.33;;;1.23;;
12356;SDS011;6243;51.244;6.774;2023-04-03T14:27:34;1.97;;;1.30;;
12356;SDS011;6243;51.244;6.774;2023-04-03T14:30:01;2.33;;;1.20;;
12356;SDS011;6243;51.244;6.774;2023-04-03T14:32:31;1.83;;;1.40;;
12356;SDS011;6243;51.244;6.774;2023-04-03T14:34:57;2.47;;;1.37;;
12356;SDS011;6243;51.244;6.774;2023-04-03T14:37:23;1.47;;;1.10;;
12356;SDS011;6243;51.244;6.774;2023-04-03T14:39:51;1.77;;;1.40;;
12356;SDS011;6243;51.244;6.774;2023-04-03T14:42:20;2.23;;;1.07;;
12356;SDS011;6243;51.244;6.774;2023-04-03T14:44:47;1.67;;;1.20;;
12356;SDS011;6243;51.244;6.774;2023-04-03T14:47:13;2.03;;;1.33;;
12356;SDS011;6243;51.244;6.774;2023-04-03T14:49:41;2.10;;;1.47;;
12356;SDS011;6243;51.244;6.774;2023-04-03T14:52:09;1.77;;;1.27;;
12356;SDS011;6243;51.244;6.774;2023-04-03T14:54:43;1.70;;;1.13;;
12356;SDS011;6243;51.244;6.774;2023-04-03T14:57:08;1.77;;;1.30;;
12356;SDS011;6243;51.244;6.774;2023-04-03T14:59:39;2.57;;;1.17;;
12356;SDS011;6243;51.244;6.774;2023-04-03T15:02:10;2.13;;;1.17;;
12356;SDS011;6243;51.244;6.774;2023-04-03T15:04:54;2.00;;;1.00;;
12356;SDS011;6243;51.244;6.774;2023-04-03T15:07:20;3.13;;;1.53;;
12356;SDS011;6243;51.244;6.774;2023-04-03T15:09:46;2.53;;;1.20;;
12356;SDS011;6243;51.244;6.774;2023-04-03T15:12:12;3.13;;;1.37;;
12356;SDS011;6243;51.244;6.774;2023-04-03T15:14:39;3.03;;;1.40;;
12356;SDS011;6243;51.244;6.774;2023-04-03T15:17:05;1.73;;;1.10;;
12356;SDS011;6243;51.244;6.774;2023-04-03T15:19:32;4.03;;;1.40;;
12356;SDS011;6243;51.244;6.774;2023-04-03T15:22:01;2.93;;;1.40;;
12356;SDS011;6243;51.244;6.774;2023-04-03T15:24:27;1.73;;;1.33;;
12356;SDS011;6243;51.244;6.774;2023-04-03T15:26:52;2.23;;;1.37;;
12356;SDS011;6243;51.244;6.774;2023-04-03T15:29:18;2.67;;;0.90;;
12356;SDS011;6243;51.244;6.774;2023-04-03T15:31:45;3.27;;;1.27;;
12356;SDS011;6243;51.244;6.774;2023-04-03T15:34:10;2.17;;;1.50;;
12356;SDS011;6243;51.244;6.774;2023-04-03T15:36:36;2.53;;;1.47;;
12356;SDS011;6243;51.244;6.774;2023-04-03T15:39:02;2.17;;;1.20;;